This is the latest recevied weather packets stored in our database for station/object IW2OBX-10. If no packets are shown the sender has not sent any weather packets the latest 10 day(s).
| Time | Temp. | Humidity | Pressure | Rain* | Wind** | Luminosity | Snow |
|---|---|---|---|---|---|---|---|
| 1777811260 | 25.56° C | 26% | 1017.9 hPa | - | - | - | - |
| 1777810359 | 27.22° C | 25% | 1017.7 hPa | - | - | - | - |
| 1777809459 | 27.22° C | 23% | 1017.7 hPa | - | - | - | - |
| 1777808558 | 27.22° C | 24% | 1017.9 hPa | - | - | - | - |
| 1777807656 | 26.67° C | 25% | 1018 hPa | - | - | - | - |
| 1777806755 | 27.22° C | 26% | 1017.9 hPa | - | - | - | - |
| 1777805855 | 26.11° C | 28% | 1017.9 hPa | - | - | - | - |
| 1777804954 | 25.56° C | 29% | 1018.1 hPa | - | - | - | - |
| 1777804053 | 27.78° C | 26% | 1018.1 hPa | - | - | - | - |
| 1777803152 | 29.44° C | 21% | 1018.1 hPa | - | - | - | - |
| 1777802251 | 30° C | 24% | 1018.3 hPa | - | - | - | - |
| 1777801351 | 31.11° C | 21% | 1018.4 hPa | - | - | - | - |
| 1777800450 | 31.67° C | 24% | 1018.6 hPa | - | - | - | - |
| 1777799549 | 32.22° C | 24% | 1018.7 hPa | - | - | - | - |
| 1777798648 | 32.78° C | 22% | 1018.7 hPa | - | - | - | - |
| 1777797747 | 32.22° C | 23% | 1018.8 hPa | - | - | - | - |
| 1777796846 | 30° C | 26% | 1019.1 hPa | - | - | - | - |
| 1777795946 | 29.44° C | 28% | 1019.2 hPa | - | - | - | - |
| 1777795045 | 27.22° C | 31% | 1019.4 hPa | - | - | - | - |
| 1777794144 | 24.44° C | 36% | 1019.5 hPa | - | - | - | - |
| 1777793243 | 22.22° C | 42% | 1019.7 hPa | - | - | - | - |
| 1777792343 | 24.44° C | 38% | 1019.6 hPa | - | - | - | - |
| 1777791442 | 22.78° C | 41% | 1019.7 hPa | - | - | - | - |
| 1777790541 | 23.33° C | 41% | 1019.7 hPa | - | - | - | - |
| 1777789640 | 20° C | 47% | 1019.9 hPa | - | - | - | - |
* Rain since midnight (hover to see other rain measurements)
** Current wind speed in m/s (hover to see current wind gust speed)